Time,TemperatureF,DewpointF,PressureIn,WindDirection,WindDirectionDegrees,WindSpeedMPH,WindSpeedGustMPH,Humidity,HourlyPrecipIn,Conditions,Clouds,dailyrainin,SoftwareType,DateUTC
2013-01-12 00:02:00,42.0,41.0,-100.00,SSE,150,6.0,14.0,98,0.00,,,-99.99,,2013-01-12 06:02:00,
2013-01-12 00:12:00,42.0,41.0,-100.00,SSE,150,6.0,14.0,98,0.00,,,-99.99,,2013-01-12 06:12:00,
2013-01-12 00:22:00,42.0,41.0,-100.00,SSE,150,6.0,14.0,98,0.00,,,-99.99,,2013-01-12 06:22:00,
2013-01-12 00:32:00,42.0,41.0,-100.00,SSE,150,6.0,14.0,98,0.00,,,-99.99,,2013-01-12 06:32:00,
2013-01-12 01:40:00,43.0,43.0,-100.00,South,180,7.0,16.0,98,0.00,,,-99.99,,2013-01-12 07:40:00,
2013-01-12 03:02:00,44.0,44.0,-100.00,South,185,6.0,14.0,98,0.00,,,-99.99,,2013-01-12 09:02:00,
2013-01-12 03:12:00,44.0,44.0,-100.00,South,185,6.0,14.0,98,0.00,,,-99.99,,2013-01-12 09:12:00,
2013-01-12 03:22:00,44.0,44.0,-100.00,South,185,6.0,14.0,98,0.00,,,-99.99,,2013-01-12 09:22:00,
2013-01-12 03:32:00,44.0,44.0,-100.00,South,185,6.0,14.0,98,0.00,,,-99.99,,2013-01-12 09:32:00,
2013-01-12 04:02:00,44.0,43.0,-100.00,South,185,7.0,17.0,97,0.00,,,-99.99,,2013-01-12 10:02:00,
2013-01-12 04:12:00,44.0,43.0,-100.00,South,185,7.0,17.0,97,0.00,,,-99.99,,2013-01-12 10:12:00,
2013-01-12 04:22:00,44.0,43.0,-100.00,South,185,7.0,17.0,97,0.00,,,-99.99,,2013-01-12 10:22:00,
2013-01-12 04:32:00,44.0,43.0,-100.00,South,185,7.0,17.0,97,0.00,,,-99.99,,2013-01-12 10:32:00,
2013-01-12 04:41:00,43.0,39.0,-100.00,South,190,12.0,29.0,85,0.00,,,-99.99,,2013-01-12 10:41:00,
2013-01-12 05:02:00,43.0,39.0,-100.00,South,190,12.0,29.0,85,0.00,,,-99.99,,2013-01-12 11:02:00,
2013-01-12 05:12:00,43.0,39.0,-100.00,South,190,12.0,29.0,85,0.00,,,-99.99,,2013-01-12 11:12:00,
2013-01-12 05:22:00,43.0,39.0,-100.00,South,190,12.0,29.0,85,0.00,,,-99.99,,2013-01-12 11:22:00,
2013-01-12 05:32:00,43.0,39.0,-100.00,South,190,12.0,29.0,85,0.00,,,-99.99,,2013-01-12 11:32:00,
2013-01-12 05:41:00,40.0,34.0,-100.00,SSW,205,7.0,22.0,80,0.00,,,-99.99,,2013-01-12 11:41:00,
2013-01-12 06:03:00,40.0,34.0,-100.00,SSW,205,7.0,22.0,80,0.00,,,-99.99,,2013-01-12 12:03:00,
2013-01-12 06:12:00,40.0,34.0,-100.00,SSW,205,7.0,22.0,80,0.00,,,-99.99,,2013-01-12 12:12:00,
2013-01-12 06:22:00,40.0,34.0,-100.00,SSW,205,7.0,22.0,80,0.00,,,-99.99,,2013-01-12 12:22:00,
2013-01-12 06:32:00,40.0,34.0,-100.00,SSW,205,7.0,22.0,80,0.00,,,-99.99,,2013-01-12 12:32:00,
2013-01-12 07:02:00,38.0,33.0,-100.00,SSW,195,7.0,27.0,81,0.00,,,-99.99,,2013-01-12 13:02:00,
2013-01-12 07:12:00,38.0,33.0,-100.00,SSW,195,7.0,27.0,81,0.00,,,-99.99,,2013-01-12 13:12:00,
2013-01-12 07:22:00,38.0,33.0,-100.00,SSW,195,7.0,27.0,81,0.00,,,-99.99,,2013-01-12 13:22:00,
2013-01-12 07:33:00,38.0,33.0,-100.00,SSW,195,7.0,27.0,81,0.00,,,-99.99,,2013-01-12 13:33:00,
2013-01-12 07:41:00,35.0,31.0,-100.00,South,185,6.0,30.0,85,0.00,,,-99.99,,2013-01-12 13:41:00,
2013-01-12 08:02:00,35.0,31.0,-100.00,South,185,6.0,30.0,85,0.00,,,-99.99,,2013-01-12 14:02:00,
2013-01-12 08:12:00,35.0,31.0,-100.00,South,185,6.0,30.0,85,0.00,,,-99.99,,2013-01-12 14:12:00,
2013-01-12 08:22:00,35.0,31.0,-100.00,South,185,6.0,30.0,85,0.00,,,-99.99,,2013-01-12 14:22:00,
2013-01-12 08:33:00,35.0,31.0,-100.00,South,185,6.0,30.0,85,0.00,,,-99.99,,2013-01-12 14:33:00,
2013-01-12 08:41:00,32.0,28.0,-100.00,SSW,195,7.0,23.0,84,0.00,,,-99.99,,2013-01-12 14:41:00,
2013-01-12 09:03:00,32.0,28.0,-100.00,SSW,195,7.0,23.0,84,0.00,,,-99.99,,2013-01-12 15:03:00,
2013-01-12 09:12:00,32.0,28.0,-100.00,SSW,195,7.0,23.0,84,0.00,,,-99.99,,2013-01-12 15:12:00,
2013-01-12 09:22:00,32.0,28.0,-100.00,SSW,195,7.0,23.0,84,0.00,,,-99.99,,2013-01-12 15:22:00,
2013-01-12 09:33:00,32.0,28.0,-100.00,SSW,195,7.0,23.0,84,0.00,,,-99.99,,2013-01-12 15:33:00,
2013-01-12 12:03:00,24.0,17.0,-100.00,SSW,205,10.0,20.0,77,0.00,,,-99.99,,2013-01-12 18:03:00,
2013-01-12 12:12:00,24.0,17.0,-100.00,SSW,205,10.0,20.0,77,0.00,,,-99.99,,2013-01-12 18:12:00,
2013-01-12 12:23:00,24.0,17.0,-100.00,SSW,205,10.0,20.0,77,0.00,,,-99.99,,2013-01-12 18:23:00,
2013-01-12 12:33:00,24.0,17.0,-100.00,SSW,205,10.0,20.0,77,0.00,,,-99.99,,2013-01-12 18:33:00,
2013-01-12 12:41:00,24.0,16.0,-100.00,SSW,205,7.0,17.0,73,0.00,,,-99.99,,2013-01-12 18:41:00,
2013-01-12 13:03:00,24.0,16.0,-100.00,SSW,205,7.0,17.0,73,0.00,,,-99.99,,2013-01-12 19:03:00,
2013-01-12 13:12:00,24.0,16.0,-100.00,SSW,205,7.0,17.0,73,0.00,,,-99.99,,2013-01-12 19:12:00,
2013-01-12 13:23:00,24.0,16.0,-100.00,SSW,205,7.0,17.0,73,0.00,,,-99.99,,2013-01-12 19:23:00,
2013-01-12 13:33:00,24.0,16.0,-100.00,SSW,205,7.0,17.0,73,0.00,,,-99.99,,2013-01-12 19:33:00,
2013-01-12 13:40:00,23.0,14.0,-100.00,SW,220,7.0,21.0,70,0.00,,,-99.99,,2013-01-12 19:40:00,
2013-01-12 14:03:00,23.0,14.0,-100.00,SW,220,7.0,21.0,70,0.00,,,-99.99,,2013-01-12 20:03:00,
2013-01-12 14:12:00,23.0,14.0,-100.00,SW,220,7.0,21.0,70,0.00,,,-99.99,,2013-01-12 20:12:00,
2013-01-12 14:22:00,23.0,14.0,-100.00,SW,220,7.0,21.0,70,0.00,,,-99.99,,2013-01-12 20:22:00,
2013-01-12 14:32:00,23.0,14.0,-100.00,SW,220,7.0,21.0,70,0.00,,,-99.99,,2013-01-12 20:32:00,
2013-01-12 15:03:00,21.0,13.0,-100.00,SSW,205,6.0,17.0,70,0.00,,,-99.99,,2013-01-12 21:03:00,
2013-01-12 15:12:00,21.0,13.0,-100.00,SSW,205,6.0,17.0,70,0.00,,,-99.99,,2013-01-12 21:12:00,
2013-01-12 15:22:00,21.0,13.0,-100.00,SSW,205,6.0,17.0,70,0.00,,,-99.99,,2013-01-12 21:22:00,
2013-01-12 15:33:00,21.0,13.0,-100.00,SSW,205,6.0,17.0,70,0.00,,,-99.99,,2013-01-12 21:33:00,
2013-01-12 15:42:00,19.0,10.0,-100.00,SW,235,4.0,17.0,70,0.00,,,-99.99,,2013-01-12 21:42:00,
2013-01-12 16:03:00,19.0,10.0,-100.00,SW,235,4.0,17.0,70,0.00,,,-99.99,,2013-01-12 22:03:00,
2013-01-12 16:12:00,19.0,10.0,-100.00,SW,235,4.0,17.0,70,0.00,,,-99.99,,2013-01-12 22:12:00,
2013-01-12 16:22:00,19.0,10.0,-100.00,SW,235,4.0,17.0,70,0.00,,,-99.99,,2013-01-12 22:22:00,
2013-01-12 16:33:00,19.0,10.0,-100.00,SW,235,4.0,17.0,70,0.00,,,-99.99,,2013-01-12 22:33:00,
2013-01-12 17:03:00,17.0,10.0,-100.00,SSW,205,5.0,16.0,75,0.00,,,-99.99,,2013-01-12 23:03:00,
2013-01-12 17:12:00,17.0,10.0,-100.00,SSW,205,5.0,16.0,75,0.00,,,-99.99,,2013-01-12 23:12:00,
2013-01-12 17:22:00,17.0,10.0,-100.00,SSW,205,5.0,16.0,75,0.00,,,-99.99,,2013-01-12 23:22:00,
2013-01-12 17:33:00,17.0,10.0,-100.00,SSW,205,5.0,16.0,75,0.00,,,-99.99,,2013-01-12 23:33:00,
2013-01-12 17:42:00,17.0,10.0,-100.00,SSW,205,5.0,16.0,75,0.00,,,-99.99,,2013-01-12 23:42:00,
2013-01-12 18:41:00,16.0,8.0,-100.00,WSW,245,3.0,12.0,70,0.00,,,-99.99,,2013-01-13 00:41:00,
2013-01-12 19:03:00,16.0,8.0,-100.00,WSW,245,3.0,12.0,70,0.00,,,-99.99,,2013-01-13 01:03:00,
2013-01-12 19:12:00,16.0,8.0,-100.00,WSW,245,3.0,12.0,70,0.00,,,-99.99,,2013-01-13 01:12:00,
2013-01-12 19:22:00,16.0,8.0,-100.00,WSW,245,3.0,12.0,70,0.00,,,-99.99,,2013-01-13 01:22:00,
2013-01-12 19:33:00,16.0,8.0,-100.00,WSW,245,3.0,12.0,70,0.00,,,-99.99,,2013-01-13 01:33:00,
2013-01-12 19:41:00,15.0,7.0,-100.00,SSW,195,4.0,10.0,70,0.00,,,-99.99,,2013-01-13 01:41:00,
2013-01-12 20:02:00,15.0,7.0,-100.00,SSW,195,4.0,10.0,70,0.00,,,-99.99,,2013-01-13 02:02:00,
2013-01-12 20:12:00,15.0,7.0,-100.00,SSW,195,4.0,10.0,70,0.00,,,-99.99,,2013-01-13 02:12:00,
2013-01-12 20:22:00,15.0,7.0,-100.00,SSW,195,4.0,10.0,70,0.00,,,-99.99,,2013-01-13 02:22:00,
2013-01-12 20:32:00,15.0,7.0,-100.00,SSW,195,4.0,10.0,70,0.00,,,-99.99,,2013-01-13 02:32:00,
2013-01-12 20:40:00,15.0,7.0,-100.00,SSW,200,2.0,8.0,72,0.00,,,-99.99,,2013-01-13 02:40:00,
2013-01-12 21:02:00,15.0,7.0,-100.00,SSW,200,2.0,8.0,72,0.00,,,-99.99,,2013-01-13 03:02:00,
2013-01-12 21:12:00,15.0,7.0,-100.00,SSW,200,2.0,8.0,72,0.00,,,-99.99,,2013-01-13 03:12:00,
2013-01-12 21:22:00,15.0,7.0,-100.00,SSW,200,2.0,8.0,72,0.00,,,-99.99,,2013-01-13 03:22:00,
2013-01-12 21:33:00,15.0,7.0,-100.00,SSW,200,2.0,8.0,72,0.00,,,-99.99,,2013-01-13 03:33:00,
2013-01-12 22:02:00,14.0,7.0,-100.00,SW,220,3.0,9.0,74,0.00,,,-99.99,,2013-01-13 04:02:00,
2013-01-12 22:12:00,14.0,7.0,-100.00,SW,220,3.0,9.0,74,0.00,,,-99.99,,2013-01-13 04:12:00,
2013-01-12 22:22:00,14.0,7.0,-100.00,SW,220,3.0,9.0,74,0.00,,,-99.99,,2013-01-13 04:22:00,
2013-01-12 22:33:00,14.0,7.0,-100.00,SW,220,3.0,9.0,74,0.00,,,-99.99,,2013-01-13 04:33:00,
2013-01-12 23:03:00,14.0,7.0,-100.00,WSW,240,3.0,10.0,73,0.00,,,-99.99,,2013-01-13 05:03:00,
2013-01-12 23:12:00,14.0,7.0,-100.00,WSW,240,3.0,10.0,73,0.00,,,-99.99,,2013-01-13 05:12:00,
2013-01-12 23:22:00,14.0,7.0,-100.00,WSW,240,3.0,10.0,73,0.00,,,-99.99,,2013-01-13 05:22:00,
2013-01-12 23:32:00,14.0,7.0,-100.00,WSW,240,3.0,10.0,73,0.00,,,-99.99,,2013-01-13 05:32:00,